Time;durP1;ratioP1;P1;durP2;ratioP2;P2;SDS_P1;SDS_P2;PMS_P1;PMS_P2;Temp;Humidity;BMP_temperature;BMP_pressure;BME280_temperature;BME280_humidity;BME280_pressure;Samples;Min_cycle;Max_cycle;Signal;HPM_P1;HPM_P2
2021/03/06 00:00:23;;;;;;;;;;;;;;;-3.82;100.00;96960.06;1030414;28;20534;-61
2021/03/06 00:00:56;;;;;;;;;;;;;;;-3.79;100.00;96962.31;1035402;28;19910;-61
2021/03/06 00:01:27;;;;;;;;;;;;;;;-3.79;100.00;96964.88;1035980;28;19914;-61
2021/03/06 00:01:57;;;;;;;;;;;;;;;-3.82;100.00;96960.88;1039008;28;19910;-61
2021/03/06 00:02:27;;;;;;;;;;;;;;;-3.83;100.00;96966.13;1039705;28;19913;-61
2021/03/06 00:02:58;;;;;;;;;;;;;;;-3.83;100.00;96968.69;1039583;28;19920;-61
2021/03/06 00:03:28;;;;;;;;;;;;;;;-3.80;100.00;96970.97;1039292;28;19920;-61
2021/03/06 00:03:58;;;;;;;;;;;;;;;-3.82;100.00;96971.13;1039165;28;19913;-61
2021/03/06 00:04:29;;;;;;;;;;;;;;;-3.85;100.00;96968.84;1034624;28;19960;-61
2021/03/06 00:04:59;;;;;;;;;;;;;;;-3.85;100.00;96973.16;1039359;28;19948;-60
2021/03/06 00:05:29;;;;;;;;;;;;;;;-3.85;100.00;96962.91;1039068;28;19913;-61
2021/03/06 00:06:00;;;;;;;;;;;;;;;-3.86;100.00;96971.53;1037630;28;19979;-62
2021/03/06 00:06:30;;;;;;;;;;;;;;;-3.86;100.00;96976.66;1039744;28;19910;-62
2021/03/06 00:07:00;;;;;;;;;;;;;;;-3.84;100.00;96961.94;1041203;28;19909;-62
2021/03/06 00:07:31;;;;;;;;;;;;;;;-3.83;100.00;96971.25;1038565;28;19909;-62
2021/03/06 00:08:01;;;;;;;;;;;;;;;-3.85;100.00;96975.72;1036562;28;19932;-61
2021/03/06 00:08:31;;;;;;;;;;;;;;;-3.88;100.00;96976.00;1037953;28;20682;-61
2021/03/06 00:09:01;;;;;;;;;;;;;;;-3.93;100.00;96975.59;1036332;28;19987;-61
2021/03/06 00:09:32;;;;;;;;;;;;;;;-3.92;100.00;96972.91;1035044;28;19913;-60
2021/03/06 00:10:03;;;;;;;;;;;;;;;-3.91;100.00;96976.28;1039036;28;19917;-62
2021/03/06 00:10:33;;;;;;;;;;;;;;;-3.91;100.00;96971.97;1038489;28;19932;-61
2021/03/06 00:11:04;;;;;;;;;;;;;;;-3.92;100.00;96972.13;1039403;28;19910;-61
2021/03/06 00:11:34;;;;;;;;;;;;;;;-3.91;100.00;96978.84;1043215;28;19912;-60
2021/03/06 00:12:04;;;;;;;;;;;;;;;-3.96;100.00;96975.88;1043885;28;19909;-59
2021/03/06 00:12:35;;;;;;;;;;;;;;;-3.98;100.00;96970.91;1043541;28;19916;-62
2021/03/06 00:13:05;;;;;;;;;;;;;;;-3.96;100.00;96981.00;1043863;28;19962;-61
2021/03/06 00:13:36;;;;;;;;;;;;;;;-3.98;100.00;96970.09;1042540;28;20000;-60
2021/03/06 00:14:06;;;;;;;;;;;;;;;-4.01;100.00;96971.19;1043249;28;19967;-62
2021/03/06 00:14:36;;;;;;;;;;;;;;;-4.03;100.00;96976.44;1039353;28;19963;-61
2021/03/06 00:15:07;;;;;;;;;;;;;;;-3.99;100.00;96973.59;1037440;28;19916;-61
2021/03/06 00:15:37;;;;;;;;;;;;;;;-3.96;100.00;96975.88;1038274;28;19928;-61
2021/03/06 00:16:08;;;;;;;;;;;;;;;-3.98;100.00;96972.66;1028146;28;19914;-62
2021/03/06 00:16:38;;;;;;;;;;;;;;;-3.99;100.00;96968.47;1027113;28;19921;-61
2021/03/06 00:17:08;;;;;;;;;;;;;;;-4.02;100.00;96974.72;1025781;28;19942;-62
2021/03/06 00:17:39;;;;;;;;;;;;;;;-4.03;100.00;96976.44;1026542;28;19921;-61
2021/03/06 00:18:09;;;;;;;;;;;;;;;-4.08;100.00;96978.63;1035115;28;19920;-61
2021/03/06 00:18:39;;;;;;;;;;;;;;;-4.07;100.00;96969.19;1032458;28;20479;-61
2021/03/06 00:19:10;;;;;;;;;;;;;;;-4.07;100.00;96974.31;1034754;28;19913;-62
2021/03/06 00:19:40;;;;;;;;;;;;;;;-4.09;100.00;96971.91;1035163;28;19920;-60
2021/03/06 00:20:10;;;;;;;;;;;;;;;-4.06;100.00;96979.31;1034069;28;20754;-62
2021/03/06 00:20:41;;;;;;;;;;;;;;;-4.03;100.00;96976.44;1039606;28;19928;-62
2021/03/06 00:21:11;;;;;;;;;;;;;;;-3.96;100.00;96975.88;1043501;28;20012;-61
2021/03/06 00:21:41;;;;;;;;;;;;;;;-3.98;100.00;96972.66;1038590;28;19912;-62
2021/03/06 00:22:12;;;;;;;;;;;;;;;-4.01;100.00;96980.63;1037840;28;20276;-61
2021/03/06 00:22:42;;;;;;;;;;;;;;;-4.04;100.00;96974.84;1039274;28;19916;-62
2021/03/06 00:23:12;;;;;;;;;;;;;;;-4.05;100.00;96983.47;1034868;28;20594;-61
2021/03/06 00:23:43;;;;;;;;;;;;;;;-4.08;100.00;96973.50;1037615;28;20683;-61
2021/03/06 00:24:13;;;;;;;;;;;;;;;-4.27;100.00;96937.69;1039269;28;20471;-61
2021/03/06 00:24:43;;;;;;;;;;;;;;;-4.08;100.00;96978.63;1039157;28;19910;-62
2021/03/06 00:25:14;;;;;;;;;;;;;;;-4.11;100.00;96972.97;1041746;28;19909;-60
2021/03/06 00:25:44;;;;;;;;;;;;;;;-4.13;100.00;96972.31;1043701;28;19913;-60
2021/03/06 00:26:15;;;;;;;;;;;;;;;-4.12;100.00;96974.75;1042889;28;19912;-61
2021/03/06 00:26:45;;;;;;;;;;;;;;;-4.13;100.00;96974.88;1043208;28;19932;-61
2021/03/06 00:27:15;;;;;;;;;;;;;;;-4.16;100.00;96970.00;1037019;28;19909;-60
2021/03/06 00:27:46;;;;;;;;;;;;;;;-4.16;100.00;96975.94;1039191;28;19912;-61
2021/03/06 00:28:16;;;;;;;;;;;;;;;-4.19;100.00;96976.25;1039171;28;19913;-61
2021/03/06 00:28:46;;;;;;;;;;;;;;;-4.12;100.00;96974.75;1030797;28;19906;-62
2021/03/06 00:29:17;;;;;;;;;;;;;;;-4.15;100.00;96971.66;1031089;28;19934;-62
2021/03/06 00:29:47;;;;;;;;;;;;;;;-4.19;100.00;96978.81;1028545;28;20438;-62
2021/03/06 00:30:17;;;;;;;;;;;;;;;-4.18;100.00;96972.72;1026969;28;20755;-62
2021/03/06 00:30:49;;;;;;;;;;;;;;;-4.18;100.00;96977.84;1037215;28;19918;-61
2021/03/06 00:31:19;;;;;;;;;;;;;;;-4.17;100.00;96970.97;1039466;28;19999;-62
2021/03/06 00:31:49;;;;;;;;;;;;;;;-4.16;100.00;96973.38;1043406;28;20416;-62
2021/03/06 00:32:20;;;;;;;;;;;;;;;-4.14;100.00;96974.06;1043125;28;21049;-60
2021/03/06 00:32:50;;;;;;;;;;;;;;;-4.18;100.00;96972.72;1043214;28;19909;-61
2021/03/06 00:33:20;;;;;;;;;;;;;;;-4.17;100.00;96973.53;1042569;28;19913;-61
2021/03/06 00:33:51;;;;;;;;;;;;;;;-4.16;100.00;96975.94;1043209;28;19948;-61
2021/03/06 00:34:22;;;;;;;;;;;;;;;-4.17;100.00;96973.53;1039258;28;19925;-62
2021/03/06 00:34:52;;;;;;;;;;;;;;;-4.17;100.00;96978.66;1034883;28;19913;-62
2021/03/06 00:35:22;;;;;;;;;;;;;;;-4.20;100.00;96968.69;1034900;28;20437;-61
2021/03/06 00:35:53;;;;;;;;;;;;;;;-4.19;100.00;96975.41;1031739;28;19944;-61
2021/03/06 00:36:23;;;;;;;;;;;;;;;-4.18;100.00;96974.50;1035299;28;20586;-62
2021/03/06 00:36:53;;;;;;;;;;;;;;;-4.18;100.00;96971.94;1039234;28;19923;-61
2021/03/06 00:37:24;;;;;;;;;;;;;;;-4.19;100.00;96970.28;1036479;28;19964;-62
2021/03/06 00:37:54;;;;;;;;;;;;;;;-4.17;100.00;96968.41;1039360;28;20326;-62
2021/03/06 00:38:24;;;;;;;;;;;;;;;-4.18;100.00;96972.72;1039365;28;20410;-61
2021/03/06 00:38:55;;;;;;;;;;;;;;;-4.18;100.00;96966.81;1038699;28;19913;-60
2021/03/06 00:39:25;;;;;;;;;;;;;;;-4.17;100.00;96973.53;1043858;28;19916;-61
2021/03/06 00:39:55;;;;;;;;;;;;;;;-4.18;100.00;96966.81;1038970;28;19944;-61
2021/03/06 00:40:26;;;;;;;;;;;;;;;-4.18;100.00;96970.16;1039266;28;20403;-60
2021/03/06 00:40:56;;;;;;;;;;;;;;;-4.19;100.00;96980.53;1038276;28;19910;-61
2021/03/06 00:41:27;;;;;;;;;;;;;;;-4.19;100.00;96970.28;1038983;28;19921;-62
2021/03/06 00:41:57;;;;;;;;;;;;;;;-4.21;100.00;96980.69;1043346;28;19915;-61
2021/03/06 00:42:27;;;;;;;;;;;;;;;-4.17;100.00;96969.22;1043073;28;19983;-60
2021/03/06 00:42:58;;;;;;;;;;;;;;;-4.15;100.00;96979.34;1034755;28;19916;-62
2021/03/06 00:43:34;;;;;;;;;;;;;;;-4.21;100.00;96974.75;1031032;28;19913;-61
2021/03/06 00:44:04;;;;;;;;;;;;;;;-4.16;100.00;96981.06;1026660;28;19969;-61
2021/03/06 00:44:35;;;;;;;;;;;;;;;-4.17;100.00;96981.22;1028924;28;19996;-61
2021/03/06 00:45:06;;;;;;;;;;;;;;;-4.13;100.00;96980.78;1034860;28;19913;-61
2021/03/06 00:45:36;;;;;;;;;;;;;;;-4.13;100.00;96978.22;1034219;28;20012;-61
2021/03/06 00:46:06;;;;;;;;;;;;;;;-4.16;100.00;96981.06;1039241;28;19924;-61
2021/03/06 00:46:36;;;;;;;;;;;;;;;-4.18;100.00;96985.53;1039230;28;19905;-61
2021/03/06 00:47:07;;;;;;;;;;;;;;;-4.14;100.00;96984.31;1042834;28;20398;-62
2021/03/06 00:47:37;;;;;;;;;;;;;;;-4.15;100.00;96982.69;1042305;28;19909;-62
2021/03/06 00:48:07;;;;;;;;;;;;;;;-4.17;100.00;96982.03;1043540;28;20424;-61
2021/03/06 00:48:38;;;;;;;;;;;;;;;-4.15;100.00;96987.03;1043371;28;20354;-61
2021/03/06 00:49:08;;;;;;;;;;;;;;;-4.16;100.00;96983.63;1036156;28;21757;-62
2021/03/06 00:49:38;;;;;;;;;;;;;;;-4.17;100.00;96983.78;1028242;28;19921;-61
2021/03/06 00:50:12;;;;;;;;;;;;;;;-4.20;100.00;96982.31;1032266;28;19910;-61
2021/03/06 00:50:42;;;;;;;;;;;;;;;-4.20;100.00;96984.06;1033152;28;19941;-60
2021/03/06 00:51:13;;;;;;;;;;;;;;;-4.17;100.00;96987.16;1031814;28;19917;-61
2021/03/06 00:51:43;;;;;;;;;;;;;;;-4.16;100.00;96983.63;1037071;28;20487;-60
2021/03/06 00:52:13;;;;;;;;;;;;;;;-4.15;100.00;96985.28;1038751;28;20665;-61
2021/03/06 00:52:44;;;;;;;;;;;;;;;-4.14;100.00;96984.31;1039321;28;19963;-61
2021/03/06 00:53:14;;;;;;;;;;;;;;;-4.18;100.00;96985.53;1039440;28;20279;-61
2021/03/06 00:53:44;;;;;;;;;;;;;;;-4.18;100.00;96980.41;1042000;28;19913;-63
2021/03/06 00:54:15;;;;;;;;;;;;;;;-4.16;100.00;96986.19;1043570;28;20402;-62
2021/03/06 00:54:45;;;;;;;;;;;;;;;-4.19;100.00;96981.38;1038992;28;19909;-61
2021/03/06 00:55:16;;;;;;;;;;;;;;;-4.20;100.00;96979.75;1038691;28;19913;-61
2021/03/06 00:55:46;;;;;;;;;;;;;;;-4.23;100.00;96982.56;1038925;28;19917;-62
2021/03/06 00:56:16;;;;;;;;;;;;;;;-4.28;100.00;96974.50;1038876;28;19920;-62
2021/03/06 00:56:47;;;;;;;;;;;;;;;-4.30;100.00;96978.97;1039027;28;19944;-62
2021/03/06 00:57:17;;;;;;;;;;;;;;;-4.30;100.00;96984.09;1038222;28;19913;-61
2021/03/06 00:57:47;;;;;;;;;;;;;;;-4.30;100.00;96978.97;1029431;28;20660;-62
2021/03/06 00:58:18;;;;;;;;;;;;;;;-4.30;100.00;96977.19;1035280;28;19921;-61
2021/03/06 00:58:48;;;;;;;;;;;;;;;-4.27;100.00;96978.69;1034761;28;20047;-61
2021/03/06 00:59:19;;;;;;;;;;;;;;;-4.30;100.00;96977.19;1032277;28;20000;-61
2021/03/06 00:59:49;;;;;;;;;;;;;;;-4.31;100.00;96978.16;1042438;28;20441;-61
2021/03/06 01:00:19;;;;;;;;;;;;;;;-4.34;100.00;96973.31;1043462;28;19962;-61
2021/03/06 01:00:50;;;;;;;;;;;;;;;-4.33;100.00;96976.66;1037852;28;19905;-61
2021/03/06 01:01:20;;;;;;;;;;;;;;;-4.36;100.00;96971.81;1030731;28;20411;-62
2021/03/06 01:01:50;;;;;;;;;;;;;;;-4.35;100.00;96965.78;1033628;28;20060;-61
2021/03/06 01:02:21;;;;;;;;;;;;;;;-4.37;100.00;96973.59;1030734;28;19914;-61
2021/03/06 01:02:51;;;;;;;;;;;;;;;-4.34;100.00;96970.75;1030684;28;19925;-61
2021/03/06 01:03:22;;;;;;;;;;;;;;;-4.32;100.00;96973.19;1034819;28;19906;-62
2021/03/06 01:03:52;;;;;;;;;;;;;;;-4.36;100.00;96969.25;1034194;28;19941;-62
2021/03/06 01:04:23;;;;;;;;;;;;;;;-4.32;100.00;96970.63;1032570;28;20422;-62
2021/03/06 01:04:53;;;;;;;;;;;;;;;-4.35;100.00;96974.25;1038649;28;19935;-62
2021/03/06 01:05:24;;;;;;;;;;;;;;;-4.35;100.00;96976.03;1043418;28;19921;-65
2021/03/06 01:05:54;;;;;;;;;;;;;;;-4.34;100.00;96967.38;1042299;28;19909;-61
2021/03/06 01:06:25;;;;;;;;;;;;;;;-4.33;100.00;96977.47;1037810;28;19992;-62
2021/03/06 01:06:55;;;;;;;;;;;;;;;-4.37;100.00;96977.91;1038928;28;19984;-61
2021/03/06 01:07:25;;;;;;;;;;;;;;;-4.39;100.00;96974.66;1038118;28;19917;-60
2021/03/06 01:07:56;;;;;;;;;;;;;;;-4.40;100.00;96975.63;1038767;28;20462;-61
2021/03/06 01:08:26;;;;;;;;;;;;;;;-4.39;100.00;96978.06;1043433;28;20416;-60
2021/03/06 01:08:56;;;;;;;;;;;;;;;-4.39;100.00;96977.22;1038715;28;19936;-61
2021/03/06 01:09:27;;;;;;;;;;;;;;;-4.39;100.00;96974.66;1037788;28;19909;-62
2021/03/06 01:09:57;;;;;;;;;;;;;;;-4.41;100.00;96971.44;1034374;28;19910;-62
2021/03/06 01:10:29;;;;;;;;;;;;;;;-4.44;100.00;96971.72;1034990;28;19979;-61
2021/03/06 01:10:59;;;;;;;;;;;;;;;-4.47;100.00;96964.31;1038005;28;20446;-61
2021/03/06 01:11:30;;;;;;;;;;;;;;;-4.46;100.00;96963.34;1034375;28;19913;-61
2021/03/06 01:12:00;;;;;;;;;;;;;;;-4.43;100.00;96970.75;1039029;28;20371;-61
2021/03/06 01:12:30;;;;;;;;;;;;;;;-4.44;100.00;96962.28;1038797;28;19912;-62
2021/03/06 01:13:01;;;;;;;;;;;;;;;-4.43;100.00;96963.88;1038602;28;19915;-62
2021/03/06 01:13:32;;;;;;;;;;;;;;;-4.38;100.00;96966.06;1043362;28;20049;-61
2021/03/06 01:14:02;;;;;;;;;;;;;;;-4.41;100.00;96966.31;1043450;28;20417;-61
2021/03/06 01:14:32;;;;;;;;;;;;;;;-4.44;100.00;96966.59;1043614;28;19904;-61
2021/03/06 01:15:03;;;;;;;;;;;;;;;-4.45;100.00;96963.22;1043351;28;20433;-61
2021/03/06 01:15:34;;;;;;;;;;;;;;;-4.47;100.00;96957.44;1043322;28;19901;-60
2021/03/06 01:16:04;;;;;;;;;;;;;;;-4.48;100.00;96960.94;1043794;28;19916;-61
2021/03/06 01:16:34;;;;;;;;;;;;;;;-4.45;100.00;96957.31;1042964;28;19905;-62
2021/03/06 01:17:05;;;;;;;;;;;;;;;-4.45;100.00;96958.09;1043009;28;19971;-61
2021/03/06 01:17:35;;;;;;;;;;;;;;;-4.46;100.00;96958.22;1043662;28;20513;-62
2021/03/06 01:18:06;;;;;;;;;;;;;;;-4.47;100.00;96957.44;1043455;28;19909;-62
2021/03/06 01:18:36;;;;;;;;;;;;;;;-4.51;100.00;96951.78;1038887;28;19963;-60
2021/03/06 01:19:06;;;;;;;;;;;;;;;-4.48;100.00;96955.81;1038978;28;19909;-61
2021/03/06 01:19:36;;;;;;;;;;;;;;;-4.52;100.00;96950.16;1038963;28;19913;-61
2021/03/06 01:20:07;;;;;;;;;;;;;;;-4.53;100.00;96957.97;1038516;28;19952;-61
2021/03/06 01:20:38;;;;;;;;;;;;;;;-4.49;100.00;96951.66;1034760;28;19905;-61
2021/03/06 01:21:08;;;;;;;;;;;;;;;-4.46;100.00;96956.50;1030891;28;20009;-61
2021/03/06 01:21:39;;;;;;;;;;;;;;;-4.45;100.00;96955.53;1020555;29;20013;-62
2021/03/06 01:22:09;;;;;;;;;;;;;;;-4.44;100.00;96946.91;1019055;28;20571;-61
2021/03/06 01:22:40;;;;;;;;;;;;;;;-4.43;100.00;96945.16;1022771;29;19961;-62
2021/03/06 01:23:10;;;;;;;;;;;;;;;-4.45;100.00;96949.63;1024316;28;19918;-62
2021/03/06 01:23:40;;;;;;;;;;;;;;;-4.43;100.00;96950.28;1028154;28;19942;-61
2021/03/06 01:24:11;;;;;;;;;;;;;;;-4.45;100.00;96957.31;1030918;28;19973;-61
2021/03/06 01:24:42;;;;;;;;;;;;;;;-4.48;100.00;96944.78;1031061;28;19906;-61
2021/03/06 01:25:12;;;;;;;;;;;;;;;-4.46;100.00;96950.53;1038478;28;19913;-61
2021/03/06 01:25:43;;;;;;;;;;;;;;;-4.47;100.00;96951.50;1039430;28;20486;-61
2021/03/06 01:26:13;;;;;;;;;;;;;;;-4.50;100.00;96947.47;1039109;28;19925;-61
2021/03/06 01:26:44;;;;;;;;;;;;;;;-4.49;100.00;96943.97;1032264;28;20413;-62
2021/03/06 01:27:14;;;;;;;;;;;;;;;-4.48;100.00;96944.78;1026474;28;19954;-62
2021/03/06 01:27:45;;;;;;;;;;;;;;;-4.48;100.00;96948.13;1027024;28;19914;-61
2021/03/06 01:28:15;;;;;;;;;;;;;;;-4.51;100.00;96945.84;1022695;28;19911;-61
2021/03/06 01:28:46;;;;;;;;;;;;;;;-4.50;100.00;96943.13;1026435;28;19910;-61
2021/03/06 01:29:16;;;;;;;;;;;;;;;-4.47;100.00;96947.19;1026879;28;20343;-61
2021/03/06 01:29:47;;;;;;;;;;;;;;;-4.45;100.00;96950.44;1019193;28;19911;-61
2021/03/06 01:30:18;;;;;;;;;;;;;;;-4.49;100.00;96941.41;1018758;29;19915;-62
2021/03/06 01:30:48;;;;;;;;;;;;;;;-4.51;100.00;96941.53;1022668;29;19997;-61
2021/03/06 01:31:20;;;;;;;;;;;;;;;-4.52;100.00;96945.06;1026990;28;20013;-62
2021/03/06 01:31:51;;;;;;;;;;;;;;;-4.55;100.00;96941.97;1026836;28;19919;-61
2021/03/06 01:32:21;;;;;;;;;;;;;;;-4.59;100.00;96944.00;1027560;28;19914;-62
2021/03/06 01:32:52;;;;;;;;;;;;;;;-4.59;100.00;96943.19;1027151;28;20478;-61
2021/03/06 01:33:23;;;;;;;;;;;;;;;-4.59;100.00;96941.44;1026671;28;20672;-61
2021/03/06 01:33:53;;;;;;;;;;;;;;;-4.63;100.00;96942.63;1025993;28;19910;-61
2021/03/06 01:34:23;;;;;;;;;;;;;;;-4.64;100.00;96942.78;1026962;28;20579;-61
2021/03/06 01:34:54;;;;;;;;;;;;;;;-4.66;100.00;96949.78;1022803;29;19915;-62
2021/03/06 01:35:24;;;;;;;;;;;;;;;-4.71;100.00;96945.06;1023067;28;19914;-62
2021/03/06 01:35:55;;;;;;;;;;;;;;;-4.68;100.00;96938.88;1027012;28;20009;-61
2021/03/06 01:36:25;;;;;;;;;;;;;;;-4.64;100.00;96943.59;1027153;28;20013;-61
2021/03/06 01:36:57;;;;;;;;;;;;;;;-4.63;100.00;96939.25;1026492;28;19910;-61
2021/03/06 01:37:28;;;;;;;;;;;;;;;-4.65;100.00;96941.97;1030831;28;19910;-61
2021/03/06 01:37:58;;;;;;;;;;;;;;;-4.62;100.00;96940.91;1031178;28;20339;-61
2021/03/06 01:38:29;;;;;;;;;;;;;;;-4.62;100.00;96939.13;1027298;28;19910;-61
2021/03/06 01:38:59;;;;;;;;;;;;;;;-4.62;100.00;96949.38;1021711;29;19997;-61
2021/03/06 01:39:30;;;;;;;;;;;;;;;-4.61;100.00;96937.38;1022515;28;20773;-61
2021/03/06 01:40:00;;;;;;;;;;;;;;;-4.62;100.00;96938.34;1022766;29;20040;-62
2021/03/06 01:40:32;;;;;;;;;;;;;;;-4.63;100.00;96940.06;1026964;28;19961;-61
2021/03/06 01:41:02;;;;;;;;;;;;;;;-4.63;100.00;96937.50;1031336;28;19918;-61
2021/03/06 01:41:33;;;;;;;;;;;;;;;-4.60;100.00;96939.78;1039088;28;19909;-61
2021/03/06 01:42:03;;;;;;;;;;;;;;;-4.63;100.00;96931.56;1034913;28;20017;-61
2021/03/06 01:42:34;;;;;;;;;;;;;;;-4.64;100.00;96940.22;1026882;28;19910;-61
2021/03/06 01:43:05;;;;;;;;;;;;;;;-4.84;100.00;96906.97;1022863;29;20376;-61
2021/03/06 01:43:35;;;;;;;;;;;;;;;-4.66;100.00;96940.38;1022927;28;19915;-63
2021/03/06 01:44:06;;;;;;;;;;;;;;;-4.67;100.00;96937.94;1027081;28;19945;-61
2021/03/06 01:44:36;;;;;;;;;;;;;;;-4.67;100.00;96945.59;1027142;28;19969;-61
2021/03/06 01:45:07;;;;;;;;;;;;;;;-4.67;100.00;96951.53;1023080;28;20013;-61
2021/03/06 01:45:37;;;;;;;;;;;;;;;-4.70;100.00;96944.13;1030110;28;20427;-63
2021/03/06 01:46:08;;;;;;;;;;;;;;;-4.74;100.00;96942.78;1024633;28;19988;-61
2021/03/06 01:46:38;;;;;;;;;;;;;;;-4.75;100.00;96941.97;1027014;28;19918;-62
2021/03/06 01:47:09;;;;;;;;;;;;;;;-4.77;100.00;96943.06;1026809;28;19920;-61
2021/03/06 01:47:39;;;;;;;;;;;;;;;-4.82;100.00;96943.47;1026775;28;19913;-61
2021/03/06 01:48:10;;;;;;;;;;;;;;;-4.80;100.00;96939.00;1027106;28;19960;-61
2021/03/06 01:48:40;;;;;;;;;;;;;;;-4.77;100.00;96945.63;1030651;28;19910;-61
2021/03/06 01:49:11;;;;;;;;;;;;;;;-4.77;100.00;96948.19;1030654;28;20417;-61
2021/03/06 01:49:41;;;;;;;;;;;;;;;-4.77;100.00;96940.50;1030704;28;20004;-61
2021/03/06 01:50:12;;;;;;;;;;;;;;;-4.78;100.00;96946.56;1028984;28;19906;-61
2021/03/06 01:50:43;;;;;;;;;;;;;;;-4.79;100.00;96943.22;1026799;28;19910;-61
2021/03/06 01:51:13;;;;;;;;;;;;;;;-4.79;100.00;96944.97;1022896;29;19915;-61
2021/03/06 01:51:43;;;;;;;;;;;;;;;-4.79;100.00;96942.41;1015012;29;20380;-61
2021/03/06 01:52:14;;;;;;;;;;;;;;;-4.80;100.00;96943.34;1023191;28;19910;-61
2021/03/06 01:52:45;;;;;;;;;;;;;;;-4.78;100.00;96947.38;1030911;28;19917;-61
2021/03/06 01:53:15;;;;;;;;;;;;;;;-4.81;100.00;96944.28;1031093;28;19953;-61
2021/03/06 01:53:45;;;;;;;;;;;;;;;-4.78;100.00;96944.81;1025818;28;19914;-61
2021/03/06 01:54:17;;;;;;;;;;;;;;;-4.76;100.00;96948.06;1022906;29;19946;-61
2021/03/06 01:54:48;;;;;;;;;;;;;;;-4.74;100.00;96945.34;1023356;28;20257;-61
2021/03/06 01:55:19;;;;;;;;;;;;;;;-4.74;100.00;96941.03;1025465;28;19917;-61
2021/03/06 01:55:50;;;;;;;;;;;;;;;-4.72;100.00;96947.78;1027536;28;19911;-62
2021/03/06 01:56:20;;;;;;;;;;;;;;;-4.70;100.00;96943.31;1030963;28;20004;-61
2021/03/06 01:56:51;;;;;;;;;;;;;;;-4.73;100.00;96952.06;1030644;28;19999;-62
2021/03/06 01:57:22;;;;;;;;;;;;;;;-4.76;100.00;96949.81;1026512;28;19917;-61
2021/03/06 01:57:52;;;;;;;;;;;;;;;-4.75;100.00;96948.88;1030647;28;19989;-61
2021/03/06 01:58:22;;;;;;;;;;;;;;;-4.78;100.00;96946.56;1023121;28;19921;-62
2021/03/06 01:58:53;;;;;;;;;;;;;;;-4.80;100.00;96944.13;1030171;28;20371;-62
2021/03/06 01:59:23;;;;;;;;;;;;;;;-4.80;100.00;96948.44;1030348;28;19940;-61
2021/03/06 01:59:53;;;;;;;;;;;;;;;-4.82;100.00;96950.34;1030751;28;19910;-61
2021/03/06 02:00:24;;;;;;;;;;;;;;;-4.83;100.00;96946.16;1034485;28;19909;-61
2021/03/06 02:00:54;;;;;;;;;;;;;;;-4.83;100.00;96952.13;1030653;28;19914;-61
2021/03/06 02:01:25;;;;;;;;;;;;;;;-4.87;100.00;96948.19;1030896;28;19902;-61
2021/03/06 02:01:55;;;;;;;;;;;;;;;-4.84;100.00;96945.34;1026711;28;19913;-61
2021/03/06 02:02:26;;;;;;;;;;;;;;;-4.85;100.00;96942.94;1026608;28;19910;-61
2021/03/06 02:02:57;;;;;;;;;;;;;;;-4.86;100.00;96946.44;1018781;29;20511;-61
2021/03/06 02:03:27;;;;;;;;;;;;;;;-4.91;100.00;96949.41;1026698;28;20008;-61
2021/03/06 02:03:58;;;;;;;;;;;;;;;-4.90;100.00;96940.78;1026483;28;19914;-61
2021/03/06 02:04:28;;;;;;;;;;;;;;;-4.92;100.00;96941.88;1022629;28;19942;-62
2021/03/06 02:04:59;;;;;;;;;;;;;;;-4.95;100.00;96939.59;1027138;28;20009;-61
2021/03/06 02:05:29;;;;;;;;;;;;;;;-4.95;100.00;96944.72;1022753;28;20702;-61
2021/03/06 02:06:00;;;;;;;;;;;;;;;-4.95;100.00;96944.72;1026740;28;20037;-62
2021/03/06 02:06:30;;;;;;;;;;;;;;;-4.99;100.00;96937.31;1029394;28;19922;-61
2021/03/06 02:07:03;;;;;;;;;;;;;;;-4.90;100.00;96945.91;1026483;28;19914;-62
2021/03/06 02:07:34;;;;;;;;;;;;;;;-4.89;100.00;96939.06;1030941;28;19913;-61
2021/03/06 02:08:04;;;;;;;;;;;;;;;-4.90;100.00;96938.22;1027021;28;19912;-61
2021/03/06 02:08:35;;;;;;;;;;;;;;;-4.87;100.00;96934.59;1023145;28;19910;-61
2021/03/06 02:09:05;;;;;;;;;;;;;;;-4.87;100.00;96937.16;1019332;29;19911;-61
2021/03/06 02:09:36;;;;;;;;;;;;;;;-4.87;100.00;96937.16;1022673;28;19917;-61
2021/03/06 02:10:06;;;;;;;;;;;;;;;-4.85;100.00;96935.28;1026927;28;19921;-61
2021/03/06 02:10:37;;;;;;;;;;;;;;;-4.87;100.00;96930.28;1030780;28;19993;-61
2021/03/06 02:11:08;;;;;;;;;;;;;;;-4.83;100.00;96933.38;1026949;28;20288;-61
2021/03/06 02:11:59;;;;;;;;;;;;;;;-4.83;100.00;96941.03;1026461;28;20324;-62
2021/03/06 02:12:48;;;;;;;;;;;;;;;-4.82;100.00;96937.56;1035018;28;19910;-62
2021/03/06 02:13:21;;;;;;;;;;;;;;;-4.81;100.00;96936.59;1030433;28;19910;-61
2021/03/06 02:14:10;;;;;;;;;;;;;;;-4.82;100.00;96937.56;1026874;28;19954;-61
2021/03/06 02:14:41;;;;;;;;;;;;;;;-4.82;100.00;96943.47;1030818;28;20555;-62
2021/03/06 02:15:15;;;;;;;;;;;;;;;-4.85;100.00;96933.50;1036638;28;19992;-61
2021/03/06 02:15:48;;;;;;;;;;;;;;;-4.85;100.00;96938.63;1033854;28;20368;-61
2021/03/06 02:16:22;;;;;;;;;;;;;;;-4.87;100.00;96939.69;1031132;28;19937;-61
2021/03/06 02:17:11;;;;;;;;;;;;;;;-4.88;100.00;96938.09;1026448;28;19962;-61
2021/03/06 02:17:55;;;;;;;;;;;;;;;-4.89;100.00;96936.50;1022319;28;19954;-61
2021/03/06 02:18:41;;;;;;;;;;;;;;;-4.91;100.00;96938.38;1020797;28;19914;-61
2021/03/06 02:19:26;;;;;;;;;;;;;;;-4.91;100.00;96933.25;1022888;29;19942;-62
2021/03/06 02:19:57;;;;;;;;;;;;;;;-4.88;100.00;96938.09;1031034;28;19941;-63
2021/03/06 02:20:46;;;;;;;;;;;;;;;-4.93;100.00;96927.44;1031229;28;20303;-61
2021/03/06 02:21:28;;;;;;;;;;;;;;;-4.91;100.00;96933.25;1030656;28;20408;-59
2021/03/06 02:22:17;;;;;;;;;;;;;;;-4.91;100.00;96928.94;1026842;28;19918;-61
2021/03/06 02:23:17;;;;;;;;;;;;;;;-4.93;100.00;96927.44;1026804;28;19929;-63
2021/03/06 02:24:06;;;;;;;;;;;;;;;-4.91;100.00;96928.13;1024436;28;20020;-60
2021/03/06 02:24:43;;;;;;;;;;;;;;;-4.88;100.00;96930.41;1040075;28;19910;-59
2021/03/06 02:25:32;;;;;;;;;;;;;;;-4.87;100.00;96934.59;1038568;28;19910;-62
2021/03/06 02:26:09;;;;;;;;;;;;;;;-4.90;100.00;96927.19;1035074;28;19906;-63
2021/03/06 02:26:50;;;;;;;;;;;;;;;-4.86;100.00;96934.47;1033972;28;19916;-61
2021/03/06 02:27:29;;;;;;;;;;;;;;;-4.85;100.00;96930.16;1034392;28;20559;-61
2021/03/06 02:28:15;;;;;;;;;;;;;;;-4.88;100.00;96927.88;1026778;28;19918;-61
2021/03/06 02:28:57;;;;;;;;;;;;;;;-4.84;100.00;96934.31;1026088;28;20595;-61
2021/03/06 02:29:39;;;;;;;;;;;;;;;-4.84;100.00;96924.88;1027348;28;19910;-61
2021/03/06 02:30:10;;;;;;;;;;;;;;;-4.83;100.00;96926.50;1031672;28;19910;-62
2021/03/06 02:30:41;;;;;;;;;;;;;;;-4.80;100.00;96922.84;1035029;28;20403;-62
2021/03/06 02:31:11;;;;;;;;;;;;;;;-4.85;100.00;96930.16;1027572;28;19931;-62
2021/03/06 02:31:42;;;;;;;;;;;;;;;-4.86;100.00;96931.06;1019740;29;19903;-62
2021/03/06 02:32:15;;;;;;;;;;;;;;;-4.89;100.00;96926.25;1026415;28;19942;-61
2021/03/06 02:32:46;;;;;;;;;;;;;;;-4.88;100.00;96932.97;1028685;28;19910;-61
2021/03/06 02:33:16;;;;;;;;;;;;;;;-4.89;100.00;96927.06;1031768;28;19933;-62
2021/03/06 02:33:51;;;;;;;;;;;;;;;-4.91;100.00;96928.13;1031692;28;19914;-62
2021/03/06 02:34:22;;;;;;;;;;;;;;;-4.89;100.00;96928.81;1027734;28;19910;-61
2021/03/06 02:35:09;;;;;;;;;;;;;;;-4.92;100.00;96931.66;1023489;28;19907;-63
2021/03/06 02:35:39;;;;;;;;;;;;;;;-4.93;100.00;96923.13;1022756;29;19937;-62
2021/03/06 02:36:10;;;;;;;;;;;;;;;-4.94;100.00;96928.41;1025906;28;20006;-62
2021/03/06 02:36:41;;;;;;;;;;;;;;;-4.92;100.00;96931.66;1028213;28;20344;-60
2021/03/06 02:37:11;;;;;;;;;;;;;;;-4.94;100.00;96933.53;1033240;28;19914;-61
2021/03/06 02:37:50;;;;;;;;;;;;;;;-4.95;100.00;96926.78;1031192;28;20368;-61
2021/03/06 02:38:20;;;;;;;;;;;;;;;-4.92;100.00;96931.66;1031874;28;19908;-62
2021/03/06 02:38:50;;;;;;;;;;;;;;;-4.90;100.00;96924.63;1027067;28;20448;-60
2021/03/06 02:39:21;;;;;;;;;;;;;;;-4.90;100.00;96932.28;1025916;28;19910;-61
2021/03/06 02:39:53;;;;;;;;;;;;;;;-4.92;100.00;96931.66;1023344;28;20013;-61
2021/03/06 02:40:24;;;;;;;;;;;;;;;-4.92;100.00;96931.66;1023086;29;19915;-61
2021/03/06 02:40:55;;;;;;;;;;;;;;;-4.90;100.00;96932.28;1023887;28;20009;-61
2021/03/06 02:41:25;;;;;;;;;;;;;;;-4.93;100.00;96935.94;1028322;28;20004;-61
2021/03/06 02:41:56;;;;;;;;;;;;;;;-4.91;100.00;96930.69;1031492;28;19925;-60
2021/03/06 02:42:29;;;;;;;;;;;;;;;-4.91;100.00;96936.59;1023334;28;19907;-61